createdAt,value
2018-01-07T00:02:03.789Z,12.40
2018-01-07T00:04:31.249Z,12.30
2018-01-07T00:06:58.709Z,12.40
2018-01-07T00:09:26.178Z,12.30
2018-01-07T00:11:53.643Z,12.30
2018-01-07T00:14:21.108Z,12.30
2018-01-07T00:16:48.578Z,12.30
2018-01-07T00:19:16.038Z,12.30
2018-01-07T00:21:43.497Z,12.30
2018-01-07T00:24:11.734Z,12.30
2018-01-07T00:26:39.194Z,12.30
2018-01-07T00:29:06.762Z,12.30
2018-01-07T00:31:34.218Z,12.30
2018-01-07T00:34:01.700Z,12.30
2018-01-07T00:36:29.163Z,12.30
2018-01-07T00:38:57.394Z,12.30
2018-01-07T00:41:24.878Z,12.30
2018-01-07T00:43:53.205Z,12.20
2018-01-07T00:46:20.757Z,12.20
2018-01-07T00:48:48.221Z,12.20
2018-01-07T00:51:15.687Z,12.20
2018-01-07T00:53:43.239Z,12.20
2018-01-07T00:56:10.728Z,12.20
2018-01-07T00:58:38.250Z,12.20
2018-01-07T01:01:06.499Z,12.20
2018-01-07T01:03:33.956Z,12.20
2018-01-07T01:06:01.413Z,12.20
2018-01-07T01:08:28.866Z,12.20
2018-01-07T01:10:56.329Z,12.20
2018-01-07T01:13:24.582Z,12.20
2018-01-07T01:15:52.042Z,12.20
2018-01-07T01:18:19.511Z,12.20
2018-01-07T01:20:46.969Z,12.20
2018-01-07T01:23:15.197Z,12.20
2018-01-07T01:25:42.657Z,12.10
2018-01-07T01:28:10.118Z,12.10
2018-01-07T01:30:37.574Z,12.10
2018-01-07T01:33:05.063Z,12.00
2018-01-07T01:35:32.517Z,12.00
2018-01-07T01:37:59.969Z,12.00
2018-01-07T01:40:27.421Z,12.00
2018-01-07T01:42:54.881Z,12.00
2018-01-07T01:45:22.333Z,11.90
2018-01-07T01:47:49.793Z,11.90
2018-01-07T01:50:17.250Z,11.90
2018-01-07T01:52:44.711Z,11.90
2018-01-07T01:55:12.934Z,11.80
2018-01-07T01:57:41.165Z,11.80
2018-01-07T02:00:08.622Z,11.80
2018-01-07T02:02:36.078Z,11.80
2018-01-07T02:05:04.285Z,11.80
2018-01-07T02:07:31.874Z,11.80
2018-01-07T02:09:59.328Z,11.80
2018-01-07T02:12:26.777Z,11.80
2018-01-07T02:14:54.226Z,11.80
2018-01-07T02:17:22.495Z,11.80
2018-01-07T02:19:50.719Z,11.80
2018-01-07T02:22:18.175Z,11.80
2018-01-07T02:24:45.625Z,11.70
2018-01-07T02:27:13.089Z,11.70
2018-01-07T02:29:40.553Z,11.70
2018-01-07T02:32:08.027Z,11.70
2018-01-07T02:34:35.478Z,11.70
2018-01-07T02:37:02.933Z,11.70
2018-01-07T02:39:30.384Z,11.70
2018-01-07T02:41:57.838Z,11.60
2018-01-07T02:44:25.290Z,11.60
2018-01-07T02:46:52.747Z,11.50
2018-01-07T02:49:20.205Z,11.50
2018-01-07T02:51:47.665Z,11.50
2018-01-07T02:54:15.130Z,11.50
2018-01-07T02:56:42.600Z,11.50
2018-01-07T02:59:10.815Z,11.50
2018-01-07T03:01:39.029Z,11.40
2018-01-07T03:04:06.481Z,11.40
2018-01-07T03:06:33.953Z,11.30
2018-01-07T03:09:01.404Z,11.30
2018-01-07T03:11:28.848Z,11.30
2018-01-07T03:13:56.321Z,11.30
2018-01-07T03:16:23.769Z,11.30
2018-01-07T03:18:52.337Z,11.30
2018-01-07T03:21:19.773Z,11.30
2018-01-07T03:23:48.063Z,11.20
2018-01-07T03:26:15.457Z,11.20
2018-01-07T03:28:43.665Z,11.20
2018-01-07T03:31:11.901Z,11.10
2018-01-07T03:33:39.357Z,11.10
2018-01-07T03:36:06.810Z,11.10
2018-01-07T03:38:34.262Z,11.10
2018-01-07T03:41:01.730Z,11.10
2018-01-07T03:43:29.182Z,11.00
2018-01-07T03:45:56.636Z,11.00
2018-01-07T03:48:24.096Z,11.00
2018-01-07T03:50:51.558Z,11.00
2018-01-07T03:53:19.009Z,11.00
2018-01-07T03:55:46.478Z,11.00
2018-01-07T03:58:13.921Z,10.90
2018-01-07T04:00:41.385Z,10.90
2018-01-07T04:03:08.915Z,10.90
2018-01-07T04:05:36.370Z,10.90
2018-01-07T04:08:03.835Z,10.90
2018-01-07T04:10:31.298Z,10.90
2018-01-07T04:12:58.737Z,10.80
2018-01-07T04:15:27.353Z,10.80
2018-01-07T04:17:54.809Z,10.80
2018-01-07T04:20:22.249Z,10.80
2018-01-07T04:22:49.704Z,10.80
2018-01-07T04:25:17.145Z,10.80
2018-01-07T04:27:45.370Z,10.70
2018-01-07T04:30:12.809Z,10.70
2018-01-07T04:32:40.261Z,10.70
2018-01-07T04:35:07.722Z,10.70
2018-01-07T04:37:35.230Z,10.70
2018-01-07T04:40:03.454Z,10.70
2018-01-07T04:42:30.918Z,10.70
2018-01-07T04:44:58.377Z,10.70
2018-01-07T04:47:25.832Z,10.70
2018-01-07T04:49:53.289Z,10.70
2018-01-07T04:52:20.750Z,10.70
2018-01-07T04:54:48.205Z,10.70
2018-01-07T04:57:15.688Z,10.70
2018-01-07T04:59:43.143Z,10.70
2018-01-07T05:02:10.598Z,10.70
2018-01-07T05:04:38.045Z,10.70
2018-01-07T05:07:05.510Z,10.70
2018-01-07T05:09:32.961Z,10.60
2018-01-07T05:12:00.416Z,10.70
2018-01-07T05:14:27.865Z,10.70
2018-01-07T05:16:55.322Z,10.60
2018-01-07T05:19:22.785Z,10.60
2018-01-07T05:21:50.237Z,10.70
2018-01-07T05:24:17.700Z,10.60
2018-01-07T05:26:45.153Z,10.60
2018-01-07T05:29:12.613Z,10.60
2018-01-07T05:31:40.065Z,10.60
2018-01-07T05:34:08.281Z,10.60
2018-01-07T05:36:36.510Z,10.50
2018-01-07T05:39:03.990Z,10.50
2018-01-07T05:41:31.449Z,10.50
2018-01-07T05:43:58.932Z,10.50
2018-01-07T05:46:26.383Z,10.50
2018-01-07T05:48:54.624Z,10.50
2018-01-07T05:51:22.081Z,10.40
2018-01-07T05:53:49.539Z,10.40
2018-01-07T05:56:16.989Z,10.40
2018-01-07T05:58:44.450Z,10.40
2018-01-07T06:01:11.905Z,10.40
2018-01-07T06:03:39.364Z,10.30
2018-01-07T06:06:06.822Z,10.30
2018-01-07T06:08:34.393Z,10.30
2018-01-07T06:11:01.842Z,10.30
2018-01-07T06:13:29.301Z,10.30
2018-01-07T06:15:56.753Z,10.30
2018-01-07T06:18:24.214Z,10.20
2018-01-07T06:20:52.674Z,10.30
2018-01-07T06:23:20.117Z,10.20
2018-01-07T06:25:47.570Z,10.20
2018-01-07T06:28:15.038Z,10.10
2018-01-07T06:30:42.498Z,10.10
2018-01-07T06:33:09.940Z,10.10
2018-01-07T06:35:37.397Z,10.10
2018-01-07T06:38:04.846Z,10.10
2018-01-07T06:40:32.304Z,10.10
2018-01-07T06:43:00.525Z,10.00
2018-01-07T06:45:28.562Z,10.00
2018-01-07T06:47:56.778Z,10.00
2018-01-07T06:50:24.261Z,10.00
2018-01-07T06:52:51.805Z,10.00
2018-01-07T06:55:19.269Z,10.00
2018-01-07T06:57:46.725Z,10.00
2018-01-07T07:00:14.183Z,10.00
2018-01-07T07:02:41.633Z,10.00
2018-01-07T07:05:09.093Z,10.00
2018-01-07T07:07:36.549Z,9.90
2018-01-07T07:10:03.996Z,9.90
2018-01-07T07:12:31.450Z,9.90
2018-01-07T07:14:58.901Z,9.80
2018-01-07T07:17:26.369Z,9.90
2018-01-07T07:19:53.822Z,9.90
2018-01-07T07:22:21.297Z,9.80
2018-01-07T07:24:48.746Z,9.80
2018-01-07T07:27:16.198Z,9.90
2018-01-07T07:29:43.647Z,9.80
2018-01-07T07:32:11.104Z,9.80
2018-01-07T07:34:38.557Z,9.80
2018-01-07T07:37:06.017Z,9.80
2018-01-07T07:39:33.461Z,9.80
2018-01-07T07:42:00.919Z,9.80
2018-01-07T07:44:28.361Z,9.80
2018-01-07T07:46:55.887Z,9.80
2018-01-07T07:49:23.337Z,9.80
2018-01-07T07:51:50.794Z,9.80
2018-01-07T07:54:18.249Z,9.80
2018-01-07T07:56:45.709Z,9.70
2018-01-07T07:59:13.151Z,9.80
2018-01-07T08:01:40.605Z,9.80
2018-01-07T08:04:08.062Z,9.70
2018-01-07T08:06:35.509Z,9.70
2018-01-07T08:09:02.997Z,9.80
2018-01-07T08:11:30.442Z,8.60
2018-01-07T08:13:57.898Z,7.60
2018-01-07T08:16:25.366Z,7.00
2018-01-07T08:18:52.925Z,6.80
2018-01-07T08:21:20.378Z,6.70
2018-01-07T08:23:47.834Z,6.60
2018-01-07T08:26:15.286Z,6.40
2018-01-07T08:28:42.750Z,6.20
2018-01-07T08:31:10.201Z,6.10
2018-01-07T08:33:37.650Z,6.20
2018-01-07T08:36:05.107Z,6.10
2018-01-07T08:38:32.559Z,6.20
2018-01-07T08:41:00.007Z,6.50
2018-01-07T08:43:27.465Z,6.60
2018-01-07T08:45:54.921Z,6.50
2018-01-07T08:48:22.388Z,6.70
2018-01-07T08:50:49.850Z,6.90
2018-01-07T08:53:17.297Z,7.00
2018-01-07T08:55:44.763Z,7.40
2018-01-07T08:58:12.324Z,7.80
2018-01-07T09:00:39.773Z,7.80
2018-01-07T09:03:07.230Z,8.00
2018-01-07T09:05:34.704Z,8.10
2018-01-07T09:08:02.145Z,8.30
2018-01-07T09:10:29.602Z,8.20
2018-01-07T09:12:57.050Z,8.30
2018-01-07T09:15:24.521Z,8.40
2018-01-07T09:17:51.973Z,8.60
2018-01-07T09:20:19.445Z,8.90
2018-01-07T09:22:47.658Z,8.80
2018-01-07T09:25:15.882Z,8.80
2018-01-07T09:27:43.362Z,8.70
2018-01-07T09:30:10.816Z,8.80
2018-01-07T09:32:38.254Z,9.20
2018-01-07T09:35:05.718Z,9.30
2018-01-07T09:37:33.185Z,9.30
2018-01-07T09:40:00.664Z,9.30
2018-01-07T09:42:28.117Z,9.20
2018-01-07T09:44:55.589Z,9.30
2018-01-07T09:47:23.048Z,9.30
2018-01-07T09:49:50.486Z,9.60
2018-01-07T09:52:17.938Z,9.30
2018-01-07T09:54:45.398Z,9.50
2018-01-07T09:57:12.854Z,9.60
2018-01-07T09:59:40.310Z,9.90
2018-01-07T10:02:07.778Z,10.20
2018-01-07T10:04:35.229Z,10.60
2018-01-07T10:07:02.700Z,10.60
2018-01-07T10:09:30.149Z,10.90
2018-01-07T10:11:57.609Z,11.30
2018-01-07T10:14:25.077Z,11.30
2018-01-07T10:16:53.313Z,12.20
2018-01-07T10:19:20.772Z,12.10
2018-01-07T10:21:48.234Z,12.50
2018-01-07T10:24:15.682Z,12.50
2018-01-07T10:26:43.142Z,12.50
2018-01-07T10:29:10.598Z,12.90
2018-01-07T10:31:38.120Z,13.00
2018-01-07T10:34:06.281Z,13.10
2018-01-07T10:36:33.736Z,13.10
2018-01-07T10:39:01.177Z,13.50
2018-01-07T10:41:28.642Z,13.60
2018-01-07T10:43:57.611Z,14.20
2018-01-07T10:46:25.077Z,14.20
2018-01-07T10:48:53.282Z,14.50
2018-01-07T10:51:20.753Z,14.50
2018-01-07T10:53:48.978Z,15.70
2018-01-07T10:56:16.502Z,15.70
2018-01-07T10:58:43.957Z,15.30
2018-01-07T11:01:17.012Z,15.70
2018-01-07T11:03:45.255Z,15.80
2018-01-07T11:06:12.714Z,15.80
2018-01-07T11:08:40.198Z,15.70
2018-01-07T11:11:08.440Z,16.50
2018-01-07T11:13:35.915Z,16.40
2018-01-07T11:16:03.374Z,17.00
2018-01-07T11:18:30.865Z,17.80
2018-01-07T11:20:58.337Z,18.90
2018-01-07T11:23:25.909Z,20.80
2018-01-07T11:25:54.503Z,20.30
2018-01-07T11:28:22.126Z,21.10
2018-01-07T11:30:49.719Z,21.80
2018-01-07T11:33:17.319Z,22.20
2018-01-07T11:35:44.892Z,22.40
2018-01-07T11:38:12.485Z,22.10
2018-01-07T11:40:40.063Z,21.90
2018-01-07T11:43:07.648Z,22.00
2018-01-07T11:45:35.225Z,21.70
2018-01-07T11:48:02.774Z,21.90
2018-01-07T11:50:30.335Z,21.60
2018-01-07T11:52:58.077Z,22.00
2018-01-07T11:55:25.687Z,21.90
2018-01-07T11:57:54.111Z,22.10
2018-01-07T12:00:21.620Z,22.10
2018-01-07T12:02:49.213Z,22.00
2018-01-07T12:05:16.773Z,21.50
2018-01-07T12:07:44.333Z,21.30
2018-01-07T12:10:11.854Z,21.50
2018-01-07T12:12:40.181Z,22.00
2018-01-07T12:15:07.842Z,22.10
2018-01-07T12:17:38.786Z,22.40
2018-01-07T12:20:07.473Z,22.20
2018-01-07T12:22:35.041Z,22.30
2018-01-07T12:25:02.508Z,22.50
2018-01-07T12:27:29.949Z,22.70
2018-01-07T12:29:57.413Z,22.80
2018-01-07T12:32:24.871Z,23.10
2018-01-07T12:34:52.333Z,23.10
2018-01-07T12:37:19.798Z,23.20
2018-01-07T12:39:49.153Z,23.30
2018-01-07T12:42:16.604Z,23.20
2018-01-07T12:44:44.050Z,22.90
2018-01-07T12:47:11.513Z,22.30
2018-01-07T12:49:39.737Z,22.10
2018-01-07T12:52:07.195Z,22.10
2018-01-07T12:54:34.654Z,22.30
2018-01-07T12:57:02.210Z,22.40
2018-01-07T12:59:29.659Z,22.40
2018-01-07T13:01:57.120Z,22.40
2018-01-07T13:04:24.583Z,22.50
2018-01-07T13:06:52.038Z,22.70
2018-01-07T13:09:19.515Z,22.40
2018-01-07T13:11:47.806Z,22.40
2018-01-07T13:14:15.269Z,22.40
2018-01-07T13:16:44.249Z,21.80
2018-01-07T13:19:11.708Z,21.80
2018-01-07T13:21:39.162Z,21.70
2018-01-07T13:24:06.616Z,21.40
2018-01-07T13:26:34.113Z,21.00
2018-01-07T13:29:02.361Z,20.30
2018-01-07T13:31:29.841Z,20.30
2018-01-07T13:33:58.057Z,19.70
2018-01-07T13:36:27.447Z,19.70
2018-01-07T13:38:54.913Z,19.70
2018-01-07T13:41:22.380Z,19.70
2018-01-07T13:43:49.834Z,19.50
2018-01-07T13:46:17.293Z,19.00
2018-01-07T13:48:44.785Z,18.90
2018-01-07T13:51:12.992Z,18.70
2018-01-07T13:53:41.229Z,18.70
2018-01-07T13:56:08.683Z,18.60
2018-01-07T13:58:36.135Z,18.60
2018-01-07T14:01:03.595Z,18.30
2018-01-07T14:03:31.059Z,18.20
2018-01-07T14:05:58.506Z,18.00
2018-01-07T14:08:25.966Z,17.80
2018-01-07T14:10:53.427Z,17.60
2018-01-07T14:13:20.894Z,17.50
2018-01-07T14:15:48.346Z,17.50
2018-01-07T14:18:15.806Z,17.60
2018-01-07T14:20:43.389Z,17.50
2018-01-07T14:23:11.613Z,17.40
2018-01-07T14:25:39.069Z,17.40
2018-01-07T14:28:07.287Z,17.30
2018-01-07T14:30:38.167Z,17.20
2018-01-07T14:33:05.642Z,17.20
2018-01-07T14:35:33.106Z,16.50
2018-01-07T14:38:00.562Z,16.20
2018-01-07T14:40:28.026Z,15.70
2018-01-07T14:42:55.513Z,15.60
2018-01-07T14:45:22.973Z,15.30
2018-01-07T14:47:51.198Z,15.10
2018-01-07T14:50:18.666Z,15.10
2018-01-07T14:52:46.117Z,15.00
2018-01-07T14:55:13.593Z,14.90
2018-01-07T14:57:41.066Z,14.90
2018-01-07T15:00:10.034Z,14.80
2018-01-07T15:02:38.265Z,14.80
2018-01-07T15:05:05.763Z,14.70
2018-01-07T15:07:33.210Z,14.70
2018-01-07T15:10:00.661Z,14.50
2018-01-07T15:12:28.121Z,14.50
2018-01-07T15:14:55.595Z,14.30
2018-01-07T15:17:23.050Z,14.10
2018-01-07T15:19:50.498Z,14.10
2018-01-07T15:22:17.958Z,13.90
2018-01-07T15:24:45.418Z,13.70
2018-01-07T15:27:12.932Z,13.50
2018-01-07T15:29:41.157Z,13.30
2018-01-07T15:32:08.604Z,13.30
2018-01-07T15:34:36.069Z,13.20
2018-01-07T15:37:03.564Z,13.20
2018-01-07T15:39:31.014Z,13.20
2018-01-07T15:41:58.470Z,13.10
2018-01-07T15:44:25.927Z,13.00
2018-01-07T15:46:53.394Z,12.80
2018-01-07T15:49:21.629Z,12.70
2018-01-07T15:51:49.089Z,12.60
2018-01-07T15:54:16.551Z,12.70
2018-01-07T15:56:44.005Z,12.60
2018-01-07T15:59:11.457Z,12.50
2018-01-07T16:01:38.913Z,12.50
2018-01-07T16:04:06.369Z,12.40
2018-01-07T16:06:33.839Z,12.30
2018-01-07T16:09:01.326Z,12.20
2018-01-07T16:11:28.786Z,12.10
2018-01-07T16:13:56.248Z,12.10
2018-01-07T16:16:23.681Z,12.00
2018-01-07T16:18:51.161Z,12.00
2018-01-07T16:21:18.605Z,12.00
2018-01-07T16:23:46.078Z,12.00
2018-01-07T16:26:13.541Z,11.90
2018-01-07T16:28:41.785Z,11.80
2018-01-07T16:31:09.292Z,11.80
2018-01-07T16:33:36.693Z,11.80
2018-01-07T16:36:04.194Z,11.60
2018-01-07T16:38:32.422Z,11.60
2018-01-07T16:40:59.866Z,11.60
2018-01-07T16:43:27.345Z,11.50
2018-01-07T16:45:54.818Z,11.50
2018-01-07T16:48:22.262Z,11.40
2018-01-07T16:50:49.721Z,11.40
2018-01-07T16:53:17.171Z,11.40
2018-01-07T16:55:44.617Z,11.40
2018-01-07T16:58:12.084Z,11.40
2018-01-07T17:00:39.543Z,11.30
2018-01-07T17:03:07.003Z,11.30
2018-01-07T17:05:34.453Z,11.30
2018-01-07T17:08:01.909Z,11.20
2018-01-07T17:10:29.386Z,11.10
2018-01-07T17:12:56.834Z,11.10
2018-01-07T17:15:24.292Z,11.20
2018-01-07T17:17:51.746Z,11.10
2018-01-07T17:20:19.209Z,11.00
2018-01-07T17:22:46.662Z,10.90
2018-01-07T17:25:14.117Z,10.80
2018-01-07T17:27:41.569Z,10.80
2018-01-07T17:30:09.046Z,10.80
2018-01-07T17:32:36.480Z,10.80
2018-01-07T17:35:03.938Z,10.90
2018-01-07T17:37:31.382Z,10.80
2018-01-07T17:39:58.855Z,10.70
2018-01-07T17:42:26.384Z,10.60
2018-01-07T17:44:54.655Z,10.60
2018-01-07T17:47:22.104Z,10.60
2018-01-07T17:49:49.577Z,10.60
2018-01-07T17:52:17.065Z,10.60
2018-01-07T17:54:44.526Z,10.70
2018-01-07T17:57:11.977Z,10.70
2018-01-07T17:59:39.433Z,10.70
2018-01-07T18:02:06.917Z,10.60
2018-01-07T18:04:34.366Z,10.60
2018-01-07T18:07:01.831Z,10.50
2018-01-07T18:09:29.324Z,10.50
2018-01-07T18:11:57.550Z,10.50
2018-01-07T18:14:25.006Z,10.50
2018-01-07T18:16:52.465Z,10.50
2018-01-07T18:19:19.930Z,10.50
2018-01-07T18:21:47.377Z,10.50
2018-01-07T18:24:14.890Z,10.30
2018-01-07T18:26:43.110Z,10.40
2018-01-07T18:29:10.558Z,10.30
2018-01-07T18:31:38.019Z,10.40
2018-01-07T18:34:05.478Z,10.30
2018-01-07T18:36:32.960Z,10.30
2018-01-07T18:39:00.385Z,10.30
2018-01-07T18:41:27.842Z,10.10
2018-01-07T18:43:55.294Z,10.20
2018-01-07T18:46:22.749Z,10.10
2018-01-07T18:48:50.193Z,10.20
2018-01-07T18:51:18.418Z,10.10
2018-01-07T18:53:45.866Z,10.10
2018-01-07T18:56:13.342Z,10.10
2018-01-07T18:58:40.799Z,10.00
2018-01-07T19:01:08.273Z,10.00
2018-01-07T19:03:36.500Z,9.90
2018-01-07T19:06:03.956Z,9.90
2018-01-07T19:08:31.412Z,9.90
2018-01-07T19:10:58.870Z,9.90
2018-01-07T19:13:26.393Z,9.90
2018-01-07T19:15:53.833Z,9.80
2018-01-07T19:18:22.071Z,9.80
2018-01-07T19:20:49.547Z,9.70
2018-01-07T19:23:16.993Z,9.70
2018-01-07T19:25:44.449Z,9.60
2018-01-07T19:28:11.908Z,9.70
2018-01-07T19:30:39.362Z,9.70
2018-01-07T19:33:06.857Z,9.60
2018-01-07T19:35:34.305Z,9.60
2018-01-07T19:38:03.266Z,9.50
2018-01-07T19:40:30.713Z,9.50
2018-01-07T19:42:58.164Z,9.50
2018-01-07T19:45:25.610Z,9.40
2018-01-07T19:47:53.081Z,9.40
2018-01-07T19:50:20.527Z,9.40
2018-01-07T19:52:47.969Z,9.40
2018-01-07T19:55:15.432Z,9.40
2018-01-07T19:57:42.876Z,9.30
2018-01-07T20:00:10.335Z,9.30
2018-01-07T20:02:38.553Z,9.30
2018-01-07T20:05:06.006Z,9.30
2018-01-07T20:07:33.457Z,9.20
2018-01-07T20:10:00.950Z,9.20
2018-01-07T20:12:28.390Z,9.20
2018-01-07T20:14:55.853Z,9.20
2018-01-07T20:17:23.302Z,9.10
2018-01-07T20:19:50.765Z,9.10
2018-01-07T20:22:18.231Z,9.10
2018-01-07T20:24:45.694Z,9.10
2018-01-07T20:27:13.245Z,9.10
2018-01-07T20:29:40.705Z,9.10
2018-01-07T20:32:08.153Z,9.10
2018-01-07T20:34:35.633Z,9.10
2018-01-07T20:37:03.090Z,9.00
2018-01-07T20:39:30.549Z,9.00
2018-01-07T20:41:58.749Z,9.00
2018-01-07T20:44:26.214Z,9.00
2018-01-07T20:46:53.657Z,9.00
2018-01-07T20:49:21.102Z,8.90
2018-01-07T20:51:48.553Z,8.90
2018-01-07T20:54:16.013Z,8.90
2018-01-07T20:56:43.461Z,8.90
2018-01-07T20:59:10.910Z,8.90
2018-01-07T21:01:38.365Z,8.80
2018-01-07T21:04:05.821Z,8.90
2018-01-07T21:06:33.279Z,8.80
2018-01-07T21:09:00.740Z,8.80
2018-01-07T21:11:28.197Z,8.90
2018-01-07T21:13:55.645Z,8.80
2018-01-07T21:16:23.105Z,8.90
2018-01-07T21:18:50.565Z,8.80
2018-01-07T21:21:18.021Z,8.70
2018-01-07T21:23:45.456Z,8.70
2018-01-07T21:26:12.916Z,8.70
2018-01-07T21:28:40.366Z,8.70
2018-01-07T21:31:07.833Z,8.70
2018-01-07T21:33:35.283Z,8.70
2018-01-07T21:36:02.756Z,8.70
2018-01-07T21:38:30.192Z,8.70
2018-01-07T21:40:57.628Z,8.70
2018-01-07T21:43:25.850Z,8.60
2018-01-07T21:45:53.303Z,8.60
2018-01-07T21:48:20.757Z,8.60
2018-01-07T21:50:48.201Z,8.60
2018-01-07T21:53:15.658Z,8.60
2018-01-07T21:55:43.128Z,8.50
2018-01-07T21:58:10.590Z,8.60
2018-01-07T22:00:49.825Z,8.60
2018-01-07T22:03:29.173Z,8.50
2018-01-07T22:05:56.638Z,8.50
2018-01-07T22:08:24.073Z,8.50
2018-01-07T22:10:51.532Z,8.40
2018-01-07T22:13:18.994Z,8.40
2018-01-07T22:15:46.441Z,8.40
2018-01-07T22:18:13.905Z,8.40
2018-01-07T22:20:41.341Z,8.40
2018-01-07T22:23:08.793Z,8.30
2018-01-07T22:25:36.260Z,8.20
2018-01-07T22:28:03.713Z,8.20
2018-01-07T22:30:31.173Z,8.20
2018-01-07T22:32:58.627Z,8.10
2018-01-07T22:35:26.086Z,8.10
2018-01-07T22:37:53.520Z,8.10
2018-01-07T22:40:20.975Z,8.00
2018-01-07T22:42:49.197Z,8.00
2018-01-07T22:45:16.663Z,8.00
2018-01-07T22:47:49.773Z,7.90
2018-01-07T22:50:17.221Z,8.00
2018-01-07T22:52:45.446Z,7.90
2018-01-07T22:55:12.913Z,7.90
2018-01-07T22:57:40.370Z,7.90
2018-01-07T23:00:07.825Z,7.90
2018-01-07T23:02:35.278Z,8.00
2018-01-07T23:05:02.750Z,7.90
2018-01-07T23:07:30.199Z,7.90
2018-01-07T23:09:57.649Z,7.90
2018-01-07T23:12:25.093Z,7.90
2018-01-07T23:14:52.571Z,7.90
2018-01-07T23:17:20.006Z,7.80
2018-01-07T23:19:47.552Z,7.80
2018-01-07T23:22:14.993Z,7.80
2018-01-07T23:24:43.223Z,7.70
2018-01-07T23:27:10.672Z,7.70
2018-01-07T23:29:38.142Z,7.70
2018-01-07T23:32:05.624Z,7.70
2018-01-07T23:34:33.107Z,7.70
2018-01-07T23:37:01.377Z,7.70
2018-01-07T23:39:29.596Z,7.70
2018-01-07T23:41:57.053Z,7.70
2018-01-07T23:44:24.520Z,7.70
2018-01-07T23:46:51.977Z,7.80
2018-01-07T23:49:19.446Z,7.70
2018-01-07T23:51:46.906Z,7.70
2018-01-07T23:54:14.344Z,7.70
2018-01-07T23:56:41.794Z,7.80
2018-01-07T23:59:10.007Z,7.70
